Burfordville, MO

3:23 PM CDT on September 22, 2019 (GMT -0500)
Jackson | | Change Station
Active Advisory: Lake Wind Advisory

Elev 502 ft 37.39 °N, 89.67 °W | Updated 1 minute ago

Partly Cloudy
Partly Cloudy
88.2 °F
Feels Like 95 °F
N
2.2
Wind Variable Wind from WNW
Gusts 3.4 mph

Today
High -- | Low -- °F
--% Chance of Precip.
Yesterday
High -- | Low -- °F
Precip. -- in
Pressure 29.96 in
Visibility 10.0 miles
Clouds Clear
Heat Index 95 °F
Dew Point 72 °F
Humidity 58%
Rainfall 0.00 in
Snow Depth Not available.
6:46 AM 6:56 PM
Last Quarter, 42% visible
METAR KCGI 221953Z 23016G22KT 10SM CLR 31/21 A2997 RMK AO2 SLP146 T03060206
Pressure 29.96 in
Visibility 10.0 miles
Clouds Clear
Heat Index 95 °F
Dew Point 72 °F
Humidity 58%
Rainfall 0.00 in
Snow Depth Not available.
6:46 AM 6:56 PM
Last Quarter, 42% visible
METAR KCGI 221953Z 23016G22KT 10SM CLR 31/21 A2997 RMK AO2 SLP146 T03060206

Get Your Daily Forecast Email!

Thanks for signing up!

Be on the lookout for a verification email in your inbox.

You'll start receiving severe weather alerts in your inbox..

×

10-Day Weather Forecast

Almanac

Astronomy

Sep. 22, 2019 Rise Set
Actual Time
Civil Twilight
Nautical Twilight
Astronomical Twilight
Moon
Length of Visible Light
Length of Day
Tomorrow will be .
, % of the Moon is Illuminated

Today's Extremes

State Highs State Lows

Community

WunderPhotos

Category 6

Welcome to Category 6. This is the collective home for Weather Underground's featured writeups by Dr. Jeff Masters (right), Bob Henson (left), Chris Burt, and other regular contributors.

Nearby

Air Quality

  Air Quality AQ Index Pollutant
Not available.

Snow Depth

Station Depth Elevation

Earthquake Activity

City Distance Mag. Time & Date
Minimum magnitude displayed is 2.5.

Coastal Water Temperatures

Place Temperature

Stations

Nearby Weather Stations

Station Location Temp. Windchill Dew Point Humidity Wind Precip. Elev Updated Type
                   

Watches & Warnings

Lake Wind Advisory
Issued: 10:51 AM CDT Sep. 22, 2019 – National Weather Service

... Lake Wind Advisory remains in effect until 8 PM CDT this
evening...

* timing... windy conditions are expected into early this evening.

* Winds... south to southwest winds will be around 15 mph with
gusts of 25 to 30 mph.

* Impacts... windy conditions will result in hazardous boating
conditions on area lakes. Small boats will be especially prone
to capsizing.

Precautionary/preparedness actions...

A lake Wind Advisory indicates that winds will cause rough chop
on area lakes, and is issued when sustained winds of 15 mph or
greater are expected over large bodies of water for more than an
hour.